Inicio METAR Ruta Wind Satelite

Informe Meteorológico

Fecha: 2024/06/18 19:33:47 Local
2024.06.19 00:33 UTC


Operación:
SKYP 190000Z 34004KT 9999 SCT020 SCT040 27/23 Q1009 =